Terminal Aerodrome Forecast
Issued by NWS Boston, MA

Home | Current Version | Previous Version | Text Only | Print | Product List | Glossary On
Versions: 1 2 3 4 5 6 7 8 9 10 11 12 13 14 15 16 17 18 19 20 21 22 23
000
FTUS41 KBOX 180848 AAA
TAFBOS
TAF AMD
KBOS 180848Z 1809/1912 16007KT P6SM BKN150
     FM181200 16005KT P6SM -SHRA OVC060
     FM181600 18006KT 5SM -SHRA BR OVC030
     FM181800 16010G21KT P6SM VCSH OVC015
     FM182000 17010G22KT 2SM SHRA BR OVC010
     FM190800 19008KT 3SM BR BKN010=

USA.gov is the U.S. government's official web portal to all federal, state and local government web resources and services.